createdAt,value
2023-02-14T00:01:23.971Z,8.28
2023-02-14T00:03:51.473Z,7.64
2023-02-14T00:06:20.420Z,8.50
2023-02-14T00:08:47.832Z,8.73
2023-02-14T00:11:15.310Z,8.88
2023-02-14T00:14:03.929Z,8.78
2023-02-14T00:16:30.670Z,8.72
2023-02-14T00:19:04.555Z,9.23
2023-02-14T00:21:36.483Z,9.25
2023-02-14T00:24:04.416Z,8.76
2023-02-14T00:26:32.010Z,8.96
2023-02-14T00:28:59.468Z,9.14
2023-02-14T00:31:26.975Z,8.94
2023-02-14T00:33:55.283Z,8.45
2023-02-14T00:36:22.730Z,9.04
2023-02-14T00:38:51.532Z,9.55
2023-02-14T00:41:20.142Z,8.56
2023-02-14T00:43:48.052Z,8.61
2023-02-14T00:46:16.439Z,8.87
2023-02-14T00:48:44.254Z,9.39
2023-02-14T00:51:11.889Z,9.10
2023-02-14T00:53:39.364Z,9.32
2023-02-14T00:56:09.208Z,9.49
2023-02-14T00:58:36.781Z,9.59
2023-02-14T01:01:04.732Z,9.43
2023-02-14T01:03:32.395Z,9.57
2023-02-14T01:05:59.998Z,9.33
2023-02-14T01:08:27.516Z,9.49
2023-02-14T01:10:55.086Z,9.63
2023-02-14T01:13:24.553Z,9.52
2023-02-14T01:15:52.968Z,9.57
2023-02-14T01:18:20.621Z,9.33
2023-02-14T01:20:48.245Z,9.14
2023-02-14T01:23:15.648Z,9.25
2023-02-14T01:25:43.098Z,8.67
2023-02-14T01:28:10.530Z,8.77
2023-02-14T01:30:39.333Z,9.12
2023-02-14T01:33:06.784Z,9.34
2023-02-14T01:35:38.493Z,9.24
2023-02-14T01:38:06.148Z,9.04
2023-02-14T01:40:33.606Z,9.28
2023-02-14T01:43:01.271Z,9.16
2023-02-14T01:45:29.850Z,8.48
2023-02-14T01:47:59.461Z,8.58
2023-02-14T01:50:31.038Z,8.40
2023-02-14T01:53:03.282Z,9.01
2023-02-14T01:55:33.344Z,8.83
2023-02-14T01:58:05.735Z,9.20
2023-02-14T02:00:51.290Z,8.98
2023-02-14T02:03:21.098Z,8.87
2023-02-14T02:05:50.785Z,8.49
2023-02-14T02:08:18.404Z,9.16
2023-02-14T02:10:45.825Z,8.90
2023-02-14T02:13:17.853Z,9.43
2023-02-14T02:15:55.496Z,8.80
2023-02-14T02:18:32.999Z,9.14
2023-02-14T02:21:41.124Z,8.86
2023-02-14T02:24:20.210Z,8.96
2023-02-14T02:27:17.421Z,9.24
2023-02-14T02:30:21.410Z,9.14
2023-02-14T02:33:49.543Z,9.39
2023-02-14T02:36:36.853Z,9.55
2023-02-14T02:39:15.650Z,9.50
2023-02-14T02:41:53.354Z,9.50
2023-02-14T02:44:29.130Z,9.71
2023-02-14T02:47:05.520Z,9.40
2023-02-14T02:49:59.875Z,9.48
2023-02-14T02:52:56.026Z,9.40
2023-02-14T02:55:51.473Z,9.46
2023-02-14T02:58:19.725Z,9.32
2023-02-14T03:00:49.698Z,8.91
2023-02-14T03:03:37.833Z,9.02
2023-02-14T03:06:05.676Z,9.28
2023-02-14T03:08:34.407Z,9.46
2023-02-14T03:11:04.114Z,9.26
2023-02-14T03:14:01.037Z,9.50
2023-02-14T03:16:34.317Z,9.55
2023-02-14T03:19:39.689Z,9.15
2023-02-14T03:22:13.918Z,9.30
2023-02-14T03:24:49.235Z,9.02
2023-02-14T03:27:22.761Z,9.27
2023-02-14T03:29:58.925Z,9.39
2023-02-14T03:32:35.490Z,9.54
2023-02-14T03:35:16.519Z,9.58
2023-02-14T03:37:50.203Z,9.18
2023-02-14T03:40:24.248Z,9.03
2023-02-14T03:42:55.803Z,8.35
2023-02-14T03:45:28.782Z,8.21
2023-02-14T03:47:59.984Z,8.54
2023-02-14T03:50:31.433Z,9.01
2023-02-14T03:53:01.182Z,9.36
2023-02-14T03:55:37.175Z,9.46
2023-02-14T03:58:11.529Z,9.57
2023-02-14T04:00:42.655Z,9.54
2023-02-14T04:03:12.798Z,9.59
2023-02-14T04:05:43.864Z,9.57
2023-02-14T04:08:12.479Z,9.64
2023-02-14T04:10:43.179Z,9.53
2023-02-14T04:13:10.856Z,9.22
2023-02-14T04:15:38.300Z,9.45
2023-02-14T04:18:23.412Z,9.55
2023-02-14T04:20:50.838Z,9.42
2023-02-14T04:23:18.269Z,9.32
2023-02-14T04:25:47.071Z,9.24
2023-02-14T04:28:15.323Z,9.43
2023-02-14T04:30:42.874Z,8.87
2023-02-14T04:33:10.755Z,9.03
2023-02-14T04:35:38.221Z,9.05
2023-02-14T04:38:05.961Z,9.33
2023-02-14T04:40:33.431Z,9.36
2023-02-14T04:43:02.385Z,9.53
2023-02-14T04:45:29.900Z,9.56
2023-02-14T04:47:57.314Z,9.28
2023-02-14T04:50:25.930Z,8.86
2023-02-14T04:52:53.417Z,9.20
2023-02-14T04:55:20.885Z,9.37
2023-02-14T04:57:48.410Z,9.32
2023-02-14T05:00:18.244Z,9.31
2023-02-14T05:02:45.744Z,9.29
2023-02-14T05:05:13.167Z,9.44
2023-02-14T05:07:42.151Z,9.34
2023-02-14T05:10:10.686Z,9.30
2023-02-14T05:12:38.248Z,9.52
2023-02-14T05:15:06.088Z,9.44
2023-02-14T05:17:34.853Z,9.12
2023-02-14T05:20:02.314Z,9.01
2023-02-14T05:22:29.784Z,8.53
2023-02-14T05:24:57.229Z,9.17
2023-02-14T05:27:24.639Z,8.82
2023-02-14T05:29:52.507Z,9.00
2023-02-14T05:32:20.011Z,8.99
2023-02-14T05:34:48.770Z,8.42
2023-02-14T05:37:16.175Z,8.30
2023-02-14T05:39:43.592Z,8.41
2023-02-14T05:42:11.167Z,8.93
2023-02-14T05:44:38.674Z,8.90
2023-02-14T05:47:06.159Z,9.27
2023-02-14T05:49:33.586Z,9.39
2023-02-14T05:52:02.357Z,9.44
2023-02-14T05:54:29.790Z,9.29
2023-02-14T05:56:57.199Z,9.22
2023-02-14T05:59:24.603Z,8.42
2023-02-14T06:01:52.054Z,9.09
2023-02-14T06:04:19.495Z,9.31
2023-02-14T06:06:46.988Z,9.38
2023-02-14T06:09:15.894Z,8.56
2023-02-14T06:11:43.411Z,9.05
2023-02-14T06:14:10.825Z,9.52
2023-02-14T06:16:38.344Z,9.01
2023-02-14T06:19:05.932Z,9.22
2023-02-14T06:21:33.386Z,9.16
2023-02-14T06:24:00.784Z,9.14
2023-02-14T06:26:30.571Z,9.44
2023-02-14T06:28:59.965Z,9.56
2023-02-14T06:31:27.515Z,9.49
2023-02-14T06:33:55.774Z,9.38
2023-02-14T06:36:24.687Z,9.32
2023-02-14T06:38:52.283Z,9.65
2023-02-14T06:41:19.761Z,9.46
2023-02-14T06:43:49.529Z,9.47
2023-02-14T06:46:18.056Z,9.47
2023-02-14T06:48:46.064Z,9.42
2023-02-14T06:51:13.539Z,9.15
2023-02-14T06:53:41.108Z,9.35
2023-02-14T06:56:08.844Z,9.21
2023-02-14T06:58:36.434Z,9.45
2023-02-14T07:01:05.559Z,9.57
2023-02-14T07:03:33.002Z,9.72
2023-02-14T07:06:00.645Z,9.48
2023-02-14T07:08:28.075Z,9.68
2023-02-14T07:10:56.878Z,9.14
2023-02-14T07:13:24.668Z,9.69
2023-02-14T07:15:52.256Z,9.71
2023-02-14T07:18:21.101Z,9.79
2023-02-14T07:20:48.660Z,9.50
2023-02-14T07:23:16.109Z,8.87
2023-02-14T07:25:43.515Z,9.32
2023-02-14T07:28:11.085Z,9.74
2023-02-14T07:30:38.565Z,9.61
2023-02-14T07:33:06.343Z,9.43
2023-02-14T07:35:36.182Z,9.11
2023-02-14T07:38:04.960Z,8.66
2023-02-14T07:40:32.448Z,8.73
2023-02-14T07:43:01.085Z,9.50
2023-02-14T07:45:28.681Z,9.70
2023-02-14T07:47:56.326Z,9.59
2023-02-14T07:50:24.355Z,9.30
2023-02-14T07:52:53.092Z,9.35
2023-02-14T07:55:20.595Z,9.45
2023-02-14T07:57:48.895Z,9.40
2023-02-14T08:00:16.882Z,9.17
2023-02-14T08:02:44.826Z,9.48
2023-02-14T08:05:12.307Z,9.20
2023-02-14T08:07:39.835Z,9.44
2023-02-14T08:10:10.923Z,9.42
2023-02-14T08:12:56.837Z,9.55
2023-02-14T08:15:41.762Z,9.76
2023-02-14T08:18:09.249Z,9.94
2023-02-14T08:20:36.652Z,9.89
2023-02-14T08:23:04.514Z,10.02
2023-02-14T08:25:33.263Z,10.16
2023-02-14T08:28:06.743Z,10.21
2023-02-14T08:30:36.621Z,9.98
2023-02-14T08:33:04.109Z,10.34
2023-02-14T08:35:31.747Z,10.34
2023-02-14T08:37:59.588Z,10.29
2023-02-14T08:40:29.779Z,9.84
2023-02-14T08:42:58.593Z,9.69
2023-02-14T08:45:26.436Z,9.85
2023-02-14T08:47:54.199Z,9.62
2023-02-14T08:50:22.098Z,9.49
2023-02-14T08:52:49.643Z,9.94
2023-02-14T08:55:17.388Z,9.63
2023-02-14T08:57:44.780Z,9.44
2023-02-14T09:00:15.343Z,9.65
2023-02-14T09:02:43.095Z,10.07
2023-02-14T09:05:10.845Z,9.76
2023-02-14T09:07:38.541Z,9.61
2023-02-14T09:10:07.509Z,10.50
2023-02-14T09:12:35.034Z,10.24
2023-02-14T09:15:02.528Z,10.27
2023-02-14T09:17:31.357Z,10.40
2023-02-14T09:19:58.802Z,10.74
2023-02-14T09:22:26.241Z,10.28
2023-02-14T09:24:53.771Z,10.34
2023-02-14T09:27:21.288Z,10.27
2023-02-14T09:29:48.711Z,9.97
2023-02-14T09:32:16.787Z,10.24
2023-02-14T09:34:45.782Z,10.68
2023-02-14T09:37:31.989Z,10.21
2023-02-14T09:39:59.542Z,10.06
2023-02-14T09:42:47.232Z,10.13
2023-02-14T09:45:17.727Z,9.94
2023-02-14T09:47:50.230Z,10.10
2023-02-14T09:50:26.538Z,10.73
2023-02-14T09:52:57.833Z,10.05
2023-02-14T09:55:30.161Z,9.79
2023-02-14T09:58:09.249Z,9.98
2023-02-14T10:00:42.392Z,10.54
2023-02-14T10:03:38.051Z,10.29
2023-02-14T10:06:20.228Z,9.30
2023-02-14T10:08:58.486Z,10.55
2023-02-14T10:11:26.010Z,9.98
2023-02-14T10:13:58.854Z,9.35
2023-02-14T10:16:32.467Z,9.23
2023-02-14T10:19:04.182Z,8.40
2023-02-14T10:21:38.759Z,9.12
2023-02-14T10:24:15.207Z,9.84
2023-02-14T10:26:44.480Z,8.90
2023-02-14T10:29:15.980Z,9.19
2023-02-14T10:31:55.615Z,9.49
2023-02-14T10:34:30.135Z,9.11
2023-02-14T10:37:15.064Z,8.35
2023-02-14T10:39:58.041Z,9.40
2023-02-14T10:42:36.049Z,7.87
2023-02-14T10:45:16.044Z,7.93
2023-02-14T10:47:52.799Z,8.91
2023-02-14T10:50:26.685Z,10.11
2023-02-14T10:53:04.907Z,9.50
2023-02-14T10:55:44.046Z,9.05
2023-02-14T10:58:15.748Z,9.68
2023-02-14T11:00:53.763Z,10.32
2023-02-14T11:03:21.440Z,10.58
2023-02-14T11:05:50.286Z,11.24
2023-02-14T11:08:25.853Z,11.45
2023-02-14T11:10:54.805Z,11.20
2023-02-14T11:13:32.096Z,11.21
2023-02-14T11:16:02.194Z,10.51
2023-02-14T11:18:32.922Z,10.74
2023-02-14T11:21:02.857Z,9.87
2023-02-14T11:23:35.573Z,10.65
2023-02-14T11:26:05.041Z,8.62
2023-02-14T11:28:32.821Z,9.81
2023-02-14T11:31:01.008Z,10.06
2023-02-14T11:33:35.592Z,10.99
2023-02-14T11:36:06.069Z,11.48
2023-02-14T11:38:38.410Z,11.66
2023-02-14T11:41:08.796Z,11.66
2023-02-14T11:43:38.187Z,11.30
2023-02-14T11:46:09.548Z,11.23
2023-02-14T11:48:39.118Z,11.63
2023-02-14T11:51:09.105Z,11.47
2023-02-14T11:53:45.692Z,11.20
2023-02-14T11:56:14.007Z,11.76
2023-02-14T11:58:46.224Z,11.69
2023-02-14T12:01:22.681Z,11.82
2023-02-14T12:03:51.423Z,11.70
2023-02-14T12:06:25.379Z,10.11
2023-02-14T12:09:12.111Z,11.25
2023-02-14T12:11:39.877Z,10.93
2023-02-14T12:14:21.465Z,11.52
2023-02-14T12:16:57.335Z,11.86
2023-02-14T12:19:35.496Z,11.95
2023-02-14T12:22:06.388Z,10.76
2023-02-14T12:24:39.053Z,10.82
2023-02-14T12:27:20.030Z,8.79
2023-02-14T12:29:53.664Z,9.23
2023-02-14T12:32:24.277Z,9.08
2023-02-14T12:34:52.701Z,9.16
2023-02-14T12:37:32.462Z,10.08
2023-02-14T12:40:24.266Z,11.21
2023-02-14T12:43:13.205Z,11.58
2023-02-14T12:46:05.532Z,10.99
2023-02-14T12:48:44.048Z,11.43
2023-02-14T12:51:20.455Z,11.76
2023-02-14T12:54:21.296Z,11.97
2023-02-14T12:57:01.553Z,11.85
2023-02-14T12:59:40.597Z,12.09
2023-02-14T13:02:44.117Z,12.10
2023-02-14T13:05:20.996Z,12.14
2023-02-14T13:08:03.200Z,11.93
2023-02-14T13:10:46.349Z,12.01
2023-02-14T13:13:24.045Z,11.95
2023-02-14T13:16:00.313Z,11.14
2023-02-14T13:18:42.525Z,11.17
2023-02-14T13:21:14.975Z,11.59
2023-02-14T13:23:44.731Z,11.61
2023-02-14T13:26:15.649Z,11.25
2023-02-14T13:28:50.376Z,11.39
2023-02-14T13:31:19.194Z,11.56
2023-02-14T13:33:52.065Z,11.69
2023-02-14T13:36:20.722Z,11.92
2023-02-14T13:38:52.735Z,11.70
2023-02-14T13:41:22.402Z,12.02
2023-02-14T13:44:01.673Z,11.96
2023-02-14T13:46:56.561Z,11.80
2023-02-14T13:49:31.600Z,11.94
2023-02-14T13:52:02.751Z,10.55
2023-02-14T13:54:44.612Z,11.22
2023-02-14T13:57:34.217Z,11.31
2023-02-14T14:00:47.021Z,11.38
2023-02-14T14:03:37.076Z,11.19
2023-02-14T14:06:08.616Z,10.61
2023-02-14T14:08:38.021Z,8.98
2023-02-14T14:11:11.338Z,9.36
2023-02-14T14:13:59.847Z,10.29
2023-02-14T14:16:30.579Z,10.84
2023-02-14T14:18:59.629Z,10.60
2023-02-14T14:21:30.596Z,9.98
2023-02-14T14:24:13.520Z,10.83
2023-02-14T14:26:43.846Z,11.12
2023-02-14T14:29:17.010Z,10.34
2023-02-14T14:31:44.620Z,10.44
2023-02-14T14:34:18.794Z,9.53
2023-02-14T14:36:47.730Z,8.74
2023-02-14T14:39:27.572Z,9.68
2023-02-14T14:41:55.330Z,10.43
2023-02-14T14:44:22.782Z,10.92
2023-02-14T14:46:50.361Z,10.36
2023-02-14T14:49:18.151Z,10.59
2023-02-14T14:51:47.080Z,9.68
2023-02-14T14:54:17.385Z,9.56
2023-02-14T14:56:49.912Z,10.07
2023-02-14T14:59:20.282Z,9.78
2023-02-14T15:01:47.973Z,9.77
2023-02-14T15:04:19.010Z,10.62
2023-02-14T15:06:49.752Z,10.64
2023-02-14T15:09:23.613Z,10.87
2023-02-14T15:12:11.567Z,10.36
2023-02-14T15:14:43.029Z,10.45
2023-02-14T15:17:18.684Z,10.88
2023-02-14T15:19:50.907Z,10.95
2023-02-14T15:22:22.645Z,10.41
2023-02-14T15:24:51.936Z,9.66
2023-02-14T15:27:23.395Z,10.68
2023-02-14T15:29:56.024Z,10.82
2023-02-14T15:32:24.540Z,10.93
2023-02-14T15:34:52.549Z,10.67
2023-02-14T15:37:22.111Z,9.89
2023-02-14T15:39:53.201Z,9.83
2023-02-14T15:42:25.698Z,10.43
2023-02-14T15:45:17.994Z,10.87
2023-02-14T15:47:48.113Z,10.44
2023-02-14T15:50:17.764Z,10.35
2023-02-14T15:52:48.736Z,10.61
2023-02-14T15:55:19.831Z,10.84
2023-02-14T15:57:56.265Z,10.29
2023-02-14T16:00:25.519Z,10.69
2023-02-14T16:02:57.344Z,9.60
2023-02-14T16:05:27.405Z,10.50
2023-02-14T16:08:03.563Z,10.55
2023-02-14T16:10:33.727Z,9.68
2023-02-14T16:13:04.270Z,9.02
2023-02-14T16:15:33.648Z,7.94
2023-02-14T16:18:06.362Z,7.90
2023-02-14T16:20:43.251Z,8.80
2023-02-14T16:23:20.895Z,8.19
2023-02-14T16:25:49.128Z,8.35
2023-02-14T16:28:17.206Z,9.02
2023-02-14T16:30:47.330Z,9.78
2023-02-14T16:33:19.475Z,9.92
2023-02-14T16:35:47.598Z,10.31
2023-02-14T16:38:16.403Z,10.13
2023-02-14T16:40:47.388Z,9.50
2023-02-14T16:43:17.045Z,10.00
2023-02-14T16:45:45.833Z,10.40
2023-02-14T16:48:15.853Z,9.80
2023-02-14T16:50:44.223Z,10.13
2023-02-14T16:53:18.176Z,10.52
2023-02-14T16:55:46.906Z,10.69
2023-02-14T16:58:15.165Z,10.82
2023-02-14T17:00:42.619Z,10.36
2023-02-14T17:03:11.536Z,10.51
2023-02-14T17:05:40.370Z,10.36
2023-02-14T17:08:11.113Z,10.55
2023-02-14T17:10:38.916Z,10.26
2023-02-14T17:13:08.922Z,10.04
2023-02-14T17:15:36.740Z,10.26
2023-02-14T17:18:08.924Z,10.19
2023-02-14T17:20:37.274Z,10.35
2023-02-14T17:23:04.816Z,10.15
2023-02-14T17:25:32.285Z,9.56
2023-02-14T17:28:01.039Z,10.17
2023-02-14T17:30:29.934Z,10.68
2023-02-14T17:32:57.828Z,10.49
2023-02-14T17:35:26.015Z,10.35
2023-02-14T17:37:53.461Z,10.65
2023-02-14T17:40:21.222Z,10.67
2023-02-14T17:42:48.673Z,10.32
2023-02-14T17:45:16.212Z,10.40
2023-02-14T17:47:45.673Z,10.59
2023-02-14T17:50:14.657Z,10.68
2023-02-14T17:52:42.330Z,10.41
2023-02-14T17:55:10.264Z,10.16
2023-02-14T17:57:39.134Z,9.46
2023-02-14T18:00:10.067Z,9.59
2023-02-14T18:02:38.790Z,10.05
2023-02-14T18:05:08.574Z,10.20
2023-02-14T18:07:36.896Z,10.10
2023-02-14T18:10:04.579Z,9.77
2023-02-14T18:12:32.359Z,9.86
2023-02-14T18:14:59.951Z,9.75
2023-02-14T18:17:27.434Z,9.61
2023-02-14T18:19:55.033Z,9.76
2023-02-14T18:22:23.863Z,9.61
2023-02-14T18:24:51.430Z,9.08
2023-02-14T18:27:18.857Z,9.54
2023-02-14T18:29:46.395Z,9.67
2023-02-14T18:32:13.916Z,9.89
2023-02-14T18:34:41.415Z,9.70
2023-02-14T18:37:08.907Z,9.08
2023-02-14T18:39:38.563Z,9.33
2023-02-14T18:42:06.235Z,9.79
2023-02-14T18:44:34.247Z,9.23
2023-02-14T18:47:02.649Z,9.32
2023-02-14T18:49:30.410Z,9.72
2023-02-14T18:51:58.749Z,9.89
2023-02-14T18:54:28.423Z,9.88
2023-02-14T18:56:57.208Z,10.06
2023-02-14T18:59:24.654Z,9.26
2023-02-14T19:01:52.177Z,9.86
2023-02-14T19:04:19.661Z,9.67
2023-02-14T19:06:47.064Z,9.67
2023-02-14T19:09:17.237Z,9.77
2023-02-14T19:11:45.257Z,9.47
2023-02-14T19:14:14.053Z,9.35
2023-02-14T19:16:50.034Z,9.59
2023-02-14T19:19:18.502Z,9.33
2023-02-14T19:21:46.465Z,8.82
2023-02-14T19:24:16.378Z,9.19
2023-02-14T19:26:44.199Z,9.20
2023-02-14T19:29:14.916Z,9.67
2023-02-14T19:31:45.697Z,9.52
2023-02-14T19:34:17.404Z,8.70
2023-02-14T19:36:45.284Z,9.32
2023-02-14T19:39:13.654Z,9.54
2023-02-14T19:41:41.590Z,9.04
2023-02-14T19:44:13.680Z,8.47
2023-02-14T19:46:44.085Z,9.20
2023-02-14T19:49:14.973Z,9.33
2023-02-14T19:51:43.238Z,9.74
2023-02-14T19:54:11.184Z,8.84
2023-02-14T19:56:40.528Z,9.45
2023-02-14T19:59:09.474Z,9.50
2023-02-14T20:01:39.661Z,9.41
2023-02-14T20:04:10.847Z,9.32
2023-02-14T20:06:38.791Z,9.29
2023-02-14T20:09:07.052Z,8.59
2023-02-14T20:11:36.454Z,9.27
2023-02-14T20:14:04.824Z,9.34
2023-02-14T20:16:34.391Z,9.41
2023-02-14T20:19:02.923Z,9.30
2023-02-14T20:21:31.727Z,9.43
2023-02-14T20:24:00.865Z,9.31
2023-02-14T20:26:28.999Z,9.09
2023-02-14T20:28:56.672Z,9.40
2023-02-14T20:31:24.205Z,9.48
2023-02-14T20:33:52.796Z,9.26
2023-02-14T20:36:20.707Z,9.49
2023-02-14T20:38:49.491Z,9.41
2023-02-14T20:41:17.374Z,8.61
2023-02-14T20:43:44.799Z,8.02
2023-02-14T20:46:12.250Z,8.75
2023-02-14T20:48:39.828Z,9.21
2023-02-14T20:51:12.169Z,9.24
2023-02-14T20:53:40.570Z,9.22
2023-02-14T20:56:09.709Z,9.01
2023-02-14T20:58:38.311Z,9.23
2023-02-14T21:01:07.416Z,9.08
2023-02-14T21:03:37.210Z,9.38
2023-02-14T21:06:05.687Z,7.96
2023-02-14T21:08:33.627Z,7.64
2023-02-14T21:11:01.374Z,8.76
2023-02-14T21:13:30.493Z,9.16
2023-02-14T21:16:02.595Z,9.27
2023-02-14T21:18:30.680Z,9.17
2023-02-14T21:21:04.631Z,9.14
2023-02-14T21:23:32.165Z,8.11
2023-02-14T21:25:59.734Z,8.55
2023-02-14T21:28:27.200Z,8.72
2023-02-14T21:31:04.844Z,7.89
2023-02-14T21:33:33.375Z,8.24
2023-02-14T21:36:06.658Z,8.26
2023-02-14T21:38:34.270Z,7.87
2023-02-14T21:41:04.970Z,8.29
2023-02-14T21:43:34.662Z,8.76
2023-02-14T21:46:05.606Z,8.77
2023-02-14T21:48:53.402Z,8.83
2023-02-14T21:51:21.704Z,9.00
2023-02-14T21:53:49.529Z,8.92
2023-02-14T21:56:19.779Z,9.13
2023-02-14T21:58:48.039Z,9.08
2023-02-14T22:01:18.452Z,9.08
2023-02-14T22:03:46.624Z,9.12
2023-02-14T22:06:14.412Z,9.26
2023-02-14T22:08:42.549Z,8.66
2023-02-14T22:11:12.338Z,8.06
2023-02-14T22:13:39.813Z,8.65
2023-02-14T22:16:09.900Z,8.62
2023-02-14T22:18:39.594Z,8.67
2023-02-14T22:21:12.418Z,8.95
2023-02-14T22:23:40.061Z,8.69
2023-02-14T22:26:12.578Z,8.18
2023-02-14T22:28:40.256Z,7.82
2023-02-14T22:31:08.739Z,7.66
2023-02-14T22:33:37.896Z,8.28
2023-02-14T22:36:08.067Z,7.33
2023-02-14T22:38:36.297Z,7.04
2023-02-14T22:41:07.944Z,7.42
2023-02-14T22:43:36.293Z,7.81
2023-02-14T22:46:05.257Z,8.13
2023-02-14T22:48:33.461Z,8.25
2023-02-14T22:51:10.675Z,8.09
2023-02-14T22:53:38.977Z,8.15
2023-02-14T22:56:14.548Z,7.75
2023-02-14T22:58:42.694Z,7.73
2023-02-14T23:01:14.418Z,7.43
2023-02-14T23:03:41.903Z,7.84
2023-02-14T23:06:11.353Z,7.90
2023-02-14T23:08:40.370Z,7.98
2023-02-14T23:11:12.570Z,7.99
2023-02-14T23:13:57.970Z,8.17
2023-02-14T23:16:44.157Z,8.12
2023-02-14T23:19:31.343Z,7.93
2023-02-14T23:22:03.285Z,7.91
2023-02-14T23:24:30.900Z,7.94
2023-02-14T23:26:58.393Z,8.09
2023-02-14T23:29:26.183Z,7.83
2023-02-14T23:31:53.677Z,7.39
2023-02-14T23:34:21.238Z,7.60
2023-02-14T23:36:48.675Z,7.69
2023-02-14T23:39:17.425Z,8.03
2023-02-14T23:41:50.435Z,8.14
2023-02-14T23:44:20.155Z,7.70
2023-02-14T23:46:48.778Z,7.59
2023-02-14T23:49:16.901Z,7.80
2023-02-14T23:51:45.328Z,7.78
2023-02-14T23:54:13.577Z,7.76
2023-02-14T23:56:43.280Z,7.47
2023-02-14T23:59:11.053Z,7.46
